Latest Weather Observations for Casey (Wilkins Runway)*

IDT60801

Issued at 1:31 am EDT Friday 6 March 2015 (issued every 30 minutes, with the page automatically refreshed every 10 minutes)

About weather observations | Map of weather stations | Latest weather observations for ANT | Other Formats
Station Details ID: 300050 Name: WILKINS RUNWAY EAST Lat: -66.68 Lon: 111.53 Height: 753.0 m
Data from the previous 72 hours. | See also: Recent months for locations in Antarctica
Date/Time
EDT
Temp
°C
App
Temp
°C
Dew
Point
Rel
Hum
%
Delta-T
°C
Wind Press
QNH
hPa
Press
MSL
hPa
Rain
since 9 am
mm
Dir
 
Spd
km/h
Gust
km/h
Spd
kts
Gust
kts
06/01:00am -14.1 -32.3 -15.9 86 - E 78 109 42 59 961.9 - -
06/12:30am -14.1 -33.3 -15.9 86 - E 83 111 45 60 961.8 - -
06/12:20am -14.3 -32.2 -16.3 85 - ESE 76 109 41 59 963.3 - -
06/12:17am -14.3 -27.6 -16.3 85 - ESE 52 111 28 60 962.9 - -
06/12:00am -14.3 -32.9 -16.1 86 - E 80 98 43 53 962.8 - -
 
Date/Time
EDT
Temp
°C
App
Temp
°C
Dew
Point
Rel
Hum
%
Delta-T
°C
Wind Press
QNH
hPa
Press
MSL
hPa
Rain
since 9 am
mm
Dir
 
Spd
km/h
Gust
km/h
Spd
kts
Gust
kts
05/11:31pm -14.2 -34.1 -16.0 86 - E 87 106 47 57 962.8 - -
05/11:30pm -14.2 -34.1 -16.0 86 - E 87 104 47 56 962.7 - -
05/11:00pm -14.2 -34.1 -16.0 86 - E 87 102 47 55 962.8 - -
05/10:30pm -14.0 -33.9 -15.7 87 - E 87 100 47 54 963.5 - -
05/10:05pm -13.9 -33.1 -15.6 87 - E 83 102 45 55 963.8 - -
05/10:00pm -13.9 -33.4 -15.6 87 - E 85 102 46 55 964.0 - -
05/09:30pm -13.8 -33.7 -15.5 87 - E 87 96 47 52 964.3 - -
05/09:00pm -13.6 -31.8 -15.3 87 - E 78 85 42 46 965.3 - -
05/08:30pm -13.6 -31.8 -15.4 86 - E 78 93 42 50 966.1 - -
05/08:00pm -13.4 -31.6 -15.2 86 - E 78 91 42 49 966.4 - -
05/07:30pm -13.2 -29.9 -15.0 86 - E 70 82 38 44 967.7 - -
05/07:00pm -13.5 -30.2 -15.5 85 - E 70 85 38 46 967.7 - -
05/06:50pm -13.5 -30.0 -15.3 86 - E 69 87 37 47 967.8 - -
05/06:30pm -13.7 -30.4 -15.5 86 - E 70 82 38 44 968.1 - -
05/06:00pm -13.6 -30.3 -15.6 85 - E 70 82 38 44 968.6 - -
05/05:30pm -13.5 -31.0 -15.5 85 - E 74 87 40 47 968.5 - -
05/05:20pm -13.5 -30.0 -15.6 84 - ENE 69 89 37 48 968.5 - -
05/05:00pm -13.3 -29.0 -15.4 84 - ENE 65 76 35 41 969.8 - -
05/04:41pm -13.5 -26.0 -15.8 83 - ENE 48 67 26 36 970.5 - -
05/04:30pm -13.8 -27.1 -16.9 77 - ENE 52 65 28 35 971.5 - -
05/04:00pm -14.1 -26.7 -17.7 74 - E 48 63 26 34 972.8 - -
05/03:41pm -13.9 -25.8 -17.8 72 - E 44 52 24 28 972.8 - -
05/03:30pm -13.5 -24.0 -17.8 70 - E 37 43 20 23 972.8 - -
05/03:09pm -13.9 -25.6 -18.0 71 - E 43 50 23 27 972.4 - -
05/03:00pm -13.8 -25.1 -18.1 70 - E 41 48 22 26 972.7 - -
05/02:37pm -14.4 -26.1 -18.0 74 - E 43 50 23 27 973.3 - -
05/02:30pm -14.1 -25.4 -17.9 73 - E 41 48 22 26 973.5 - -
05/02:00pm -14.6 -25.9 -18.5 72 - E 41 52 22 28 974.1 - -
05/01:30pm -14.8 -26.7 -18.9 71 - E 44 52 24 28 974.0 - -
05/01:00pm -15.2 -26.2 -19.4 70 - E 39 46 21 25 974.1 - -
05/12:30pm -15.6 -23.4 -22.5 55 - E 22 30 12 16 975.2 - -
05/12:00pm -15.4 -22.8 -21.4 60 - E 20 24 11 13 975.7 - -
05/11:30am -16.6 -23.8 -20.1 74 - E 19 20 10 11 975.9 - -
05/11:00am -15.9 -24.0 -18.1 83 - ENE 24 26 13 14 975.4 - -
05/10:42am -16.3 -24.4 -18.5 83 - ENE 24 28 13 15 975.5 - -
05/10:30am -16.6 -25.5 -18.7 84 - ENE 28 32 15 17 975.3 - -
05/10:13am -16.5 -25.7 -18.4 85 - ENE 30 33 16 18 975.4 - -
05/10:00am -16.9 -26.5 -18.9 84 - ENE 32 35 17 19 975.3 - -
05/07:00am -15.4 -23.1 -17.3 85 - NE 22 26 12 14 975.3 - -
05/06:30am -14.6 -21.3 -16.4 86 - ENE 17 22 9 12 974.9 - -
05/06:00am -15.8 -23.1 -18.2 82 - ENE 20 22 11 12 975.2 - -
05/05:30am -16.0 -23.1 -17.8 86 - E 19 20 10 11 974.8 - -
05/05:00am -16.7 -24.4 -18.9 83 - ENE 22 28 12 15 974.8 - -
05/04:55am -16.3 -24.0 -18.4 84 - ENE 22 28 12 15 974.5 - -
05/04:41am -15.7 -23.4 -17.5 86 - ENE 22 24 12 13 974.5 - -
05/04:30am -15.1 -22.2 -17.0 85 - ENE 19 22 10 12 974.5 - -
05/04:00am -14.9 -20.8 -16.4 88 - NNE 13 17 7 9 974.5 - -
05/03:30am -16.3 -23.4 -18.1 86 - NE 19 20 10 11 974.1 - -
05/03:01am -17.3 -24.1 -19.9 80 - ENE 17 20 9 11 974.0 - -
05/03:00am -16.9 -23.7 -18.9 84 - ENE 17 19 9 10 974.0 - -
05/02:30am -16.5 -22.9 -17.9 89 - ENE 15 17 8 9 973.8 - -
05/02:00am -16.6 -23.4 -18.4 86 - E 17 19 9 10 973.5 - -
05/01:54am -16.5 -23.6 -18.3 86 - E 19 20 10 11 973.2 - -
05/01:30am -15.8 -22.9 -17.7 85 - E 19 20 10 11 972.8 - -
05/01:00am -13.3 -16.7 -15.4 84 - CALM 0 11 0 6 972.8 - -
05/12:30am -12.9 -16.3 -14.9 85 - CALM 0 0 0 0 972.9 - -
05/12:00am -12.4 -15.7 -14.4 85 - CALM 0 7 0 4 972.7 - -
 
Date/Time
EDT
Temp
°C
App
Temp
°C
Dew
Point
Rel
Hum
%
Delta-T
°C
Wind Press
QNH
hPa
Press
MSL
hPa
Rain
since 9 am
mm
Dir
 
Spd
km/h
Gust
km/h
Spd
kts
Gust
kts
04/11:30pm -12.0 -15.7 -14.1 84 - WSW 2 13 1 7 972.6 - -
04/11:00pm -11.8 -15.1 -13.8 85 - CALM 0 0 0 0 972.5 - -
04/10:47pm -11.7 -15.0 -13.6 86 - CALM 0 0 0 0 972.5 - -
04/10:37pm -11.7 -15.4 -13.6 86 - SSW 2 13 1 7 972.5 - -
04/10:30pm -11.7 -15.4 -13.7 85 - WSW 2 13 1 7 972.5 - -
04/10:00pm -11.7 -15.4 -13.6 86 - W 2 13 1 7 972.6 - -
04/09:30pm -11.6 -16.9 -13.0 89 - NW 11 15 6 8 972.5 - -
04/09:00pm -11.5 -17.2 -12.9 89 - NW 13 17 7 9 972.4 - -
04/08:30pm -10.8 -14.4 -12.4 88 - W 2 9 1 5 972.1 - -
04/08:00pm -11.3 -16.6 -13.0 87 - WNW 11 17 6 9 971.8 - -
04/07:50pm -9.4 -14.3 -18.3 48 - N 7 15 4 8 971.8 - -
04/07:30pm -10.0 -16.3 -16.9 57 - N 15 19 8 10 971.5 - -
04/07:00pm -10.6 -19.4 -16.8 60 - E 28 32 15 17 971.1 - -
04/06:30pm -10.1 -19.3 -17.2 56 - E 30 33 16 18 970.7 - -
04/06:00pm -9.5 -18.0 -18.2 49 - E 26 32 14 17 970.6 - -
04/05:30pm -9.6 -16.9 -18.5 48 - E 20 26 11 14 971.1 - -
04/05:00pm -9.0 -15.3 -16.8 53 - E 15 17 8 9 971.4 - -
04/04:30pm -8.4 -13.9 -15.8 55 - NE 11 13 6 7 971.8 - -
04/04:00pm -9.2 -16.3 -17.9 49 - ENE 19 30 10 16 971.9 - -
04/03:30pm -10.5 -18.1 -16.2 63 - NNE 22 44 12 24 972.3 - -
04/03:10pm -11.7 -22.6 -16.9 65 - E 39 44 21 24 971.6 - -
04/03:00pm -12.1 -23.0 -16.8 68 - E 39 46 21 25 971.6 - -
04/02:30pm -11.9 -23.6 -17.9 61 - E 43 50 23 27 971.5 - -
04/02:00pm -12.6 -24.5 -17.8 65 - E 44 50 24 27 971.6 - -
04/01:30pm -12.7 -25.3 -17.7 66 - E 48 57 26 31 971.4 - -
04/01:00pm -14.0 -27.0 -17.4 75 - E 50 59 27 32 971.2 - -
04/12:30pm -14.6 -27.6 -17.9 76 - E 50 56 27 30 971.6 - -
04/12:00pm -15.0 -28.8 -18.1 77 - ESE 54 59 29 32 971.7 - -
04/11:30am -14.9 -27.5 -18.5 74 - ESE 48 56 26 30 972.1 - -
04/11:00am -15.1 -27.4 -18.4 76 - E 46 54 25 29 972.6 - -
04/10:30am -15.3 -28.0 -18.7 75 - ESE 48 54 26 29 972.7 - -
04/10:00am -15.0 -26.7 -18.9 72 - E 43 56 23 30 973.3 - -
04/09:30am -14.6 -26.3 -18.5 72 - E 43 48 23 26 973.5 - -
04/09:00am -15.1 -26.1 -19.3 70 - E 39 46 21 25 973.9 - -
04/08:39am -15.1 -25.7 -19.2 71 - E 37 43 20 23 974.1 - -
04/08:30am -15.5 -25.3 -19.5 71 - E 33 41 18 22 974.2 - -
04/08:00am -17.1 -26.4 -20.9 72 - E 30 32 16 17 974.4 - -
04/07:30am -17.5 -26.1 -21.5 71 - E 26 30 14 16 974.8 - -
04/07:25am -17.4 -26.4 -21.5 70 - E 28 32 15 17 974.8 - -
04/07:00am -14.8 -22.5 -19.2 69 - ESE 22 26 12 14 974.9 - -
04/06:42am -13.2 -21.2 -16.8 74 - E 24 26 13 14 974.9 - -
04/06:33am -12.7 -20.7 -15.7 78 - E 24 26 13 14 975.1 - -
04/06:30am -12.6 -20.6 -15.6 78 - E 24 26 13 14 975.1 - -
04/06:00am -10.8 -15.4 -13.4 81 - ENE 7 22 4 12 975.3 - -
04/05:37am -10.5 -13.7 -12.4 86 - CALM 0 0 0 0 975.4 - -
04/05:30am -10.3 -13.5 -12.0 87 - CALM 0 0 0 0 975.5 - -
04/05:20am -10.2 -14.5 -11.9 87 - NE 6 9 3 5 975.5 - -
04/05:00am -10.1 -15.4 -11.8 87 - NE 11 15 6 8 975.5 - -
04/04:45am -10.1 -15.8 -11.8 87 - NE 13 15 7 8 975.6 - -
04/04:30am -10.1 -16.1 -11.8 87 - ENE 15 17 8 9 975.6 - -
04/04:00am -10.0 -16.4 -11.7 87 - ENE 17 19 9 10 975.9 - -
04/03:30am -9.0 -13.4 -10.2 91 - ENE 7 13 4 7 976.2 - -
04/03:00am -8.5 -11.5 -9.6 92 - CALM 0 0 0 0 976.5 - -
04/02:58am -8.5 -11.5 -9.6 92 - CALM 0 0 0 0 976.6 - -
04/02:50am -8.5 -11.5 -9.6 92 - CALM 0 0 0 0 976.7 - -
04/02:30am -8.4 -11.4 -9.5 92 - CALM 0 0 0 0 976.7 - -
04/02:09am -8.4 -11.4 -9.5 92 - CALM 0 0 0 0 976.8 - -
04/02:00am -8.4 -11.4 -9.5 92 - CALM 0 0 0 0 976.9 - -
04/01:02am -8.0 -11.0 -9.1 92 - CALM 0 0 0 0 977.2 - -
04/12:30am -7.7 -10.7 -8.8 92 - CALM 0 0 0 0 977.5 - -
04/12:00am -7.5 -10.5 -8.7 91 - CALM 0 0 0 0 977.9 - -
 
Date/Time
EDT
Temp
°C
App
Temp
°C
Dew
Point
Rel
Hum
%
Delta-T
°C
Wind Press
QNH
hPa
Press
MSL
hPa
Rain
since 9 am
mm
Dir
 
Spd
km/h
Gust
km/h
Spd
kts
Gust
kts
03/11:54pm -7.4 -10.4 -8.8 90 - CALM 0 4 0 2 978.0 - -
03/11:30pm -7.2 -10.2 -8.8 88 - CALM 0 0 0 0 978.2 - -
03/11:00pm -7.0 -10.0 -8.8 87 - CALM 0 2 0 1 978.2 - -
03/10:30pm -7.0 -10.7 -8.9 86 - S 4 4 2 2 978.4 - -
03/10:00pm -6.8 -10.1 -8.7 86 - SW 2 6 1 3 978.4 - -
03/09:30pm -6.7 -10.1 -9.4 81 - W 2 6 1 3 978.5 - -
03/09:00pm -6.7 -9.7 -9.2 82 - CALM 0 0 0 0 978.5 - -
03/08:30pm -6.3 -9.3 -9.5 78 - CALM 0 0 0 0 978.5 - -
03/08:00pm -6.7 -10.5 -9.4 81 - NW 4 6 2 3 978.5 - -
03/07:30pm -6.5 -10.8 -9.4 80 - WNW 7 9 4 5 978.5 - -
03/07:00pm -6.4 -10.8 -9.8 77 - NW 7 9 4 5 978.2 - -
03/06:30pm -6.1 -10.5 -9.8 75 - NW 7 9 4 5 978.3 - -
03/06:22pm -5.9 -10.6 -9.4 76 - NW 9 11 5 6 978.3 - -
03/06:00pm -6.1 -10.8 -9.1 79 - NW 9 11 5 6 978.3 - -
03/05:30pm -6.1 -11.2 -9.3 78 - NW 11 13 6 7 978.3 - -
03/05:00pm -5.1 -8.2 -11.2 62 - CALM 0 0 0 0 978.2 - -
03/04:30pm -3.3 -6.5 -11.7 52 - CALM 0 0 0 0 978.1 - -
03/04:00pm -4.5 -8.1 -11.7 57 - NNE 2 9 1 5 978.1 - -
03/03:30pm -5.4 -11.8 -11.3 63 - NE 17 22 9 12 978.1 - -
03/03:00pm -5.4 -8.5 -11.1 64 - CALM 0 13 0 7 978.0 - -
03/02:30pm -5.5 -12.8 -11.2 64 - N 22 28 12 15 977.6 - -
03/02:00pm -5.8 -10.1 -11.9 62 - E 6 19 3 10 977.6 - -
03/01:30pm -6.6 -12.2 -11.5 68 - NE 13 24 7 13 977.6 - -
03/01:00pm -6.7 -13.1 -11.8 67 - ENE 17 22 9 12 977.4 - -

Other Formats:

Comma delimited format used in spreadsheet applications
http://www.bom.gov.au/fwo/IDT60803/IDT60803.89615.axf

JavaScript Object Notation format (JSON) in row-major order
http://www.bom.gov.au/fwo/IDT60803/IDT60803.89615.json